sensor_id;sensor_type;location;lat;lon;timestamp;pressure;altitude;pressure_sealevel;temperature;humidity
21644;BME280;10983;51.982;9.226;2023-12-29T00:02:22;99574.59;;;10.96;100.00
21644;BME280;10983;51.982;9.226;2023-12-29T00:04:49;99576.94;;;10.93;100.00
21644;BME280;10983;51.982;9.226;2023-12-29T00:07:17;99578.22;;;10.90;100.00
21644;BME280;10983;51.982;9.226;2023-12-29T00:09:47;99576.13;;;10.92;100.00
21644;BME280;10983;51.982;9.226;2023-12-29T00:12:15;99579.59;;;10.93;100.00
21644;BME280;10983;51.982;9.226;2023-12-29T00:14:42;99572.16;;;10.95;100.00
21644;BME280;10983;51.982;9.226;2023-12-29T00:17:10;99572.41;;;10.93;100.00
21644;BME280;10983;51.982;9.226;2023-12-29T00:19:39;99569.75;;;10.93;100.00
21644;BME280;10983;51.982;9.226;2023-12-29T00:22:07;99569.28;;;10.96;100.00
21644;BME280;10983;51.982;9.226;2023-12-29T00:24:34;99570.25;;;10.90;100.00
21644;BME280;10983;51.982;9.226;2023-12-29T00:27:02;99569.75;;;10.93;100.00
21644;BME280;10983;51.982;9.226;2023-12-29T00:29:30;99573.69;;;10.91;100.00
21644;BME280;10983;51.982;9.226;2023-12-29T00:32:00;99564.91;;;10.90;100.00
21644;BME280;10983;51.982;9.226;2023-12-29T00:34:29;99562.59;;;10.94;100.00
21644;BME280;10983;51.982;9.226;2023-12-29T00:36:57;99562.84;;;10.92;100.00
21644;BME280;10983;51.982;9.226;2023-12-29T00:39:25;99551.94;;;10.94;100.00
21644;BME280;10983;51.982;9.226;2023-12-29T00:41:57;99561.47;;;10.90;100.00
21644;BME280;10983;51.982;9.226;2023-12-29T00:44:24;99557.09;;;10.84;100.00
21644;BME280;10983;51.982;9.226;2023-12-29T00:46:52;99557.09;;;10.84;100.00
21644;BME280;10983;51.982;9.226;2023-12-29T00:49:21;99566.94;;;10.83;100.00
21644;BME280;10983;51.982;9.226;2023-12-29T00:51:50;99557.59;;;10.81;100.00
21644;BME280;10983;51.982;9.226;2023-12-29T00:54:19;99541.84;;;10.58;100.00
21644;BME280;10983;51.982;9.226;2023-12-29T00:56:50;99530.31;;;10.36;100.00
21644;BME280;10983;51.982;9.226;2023-12-29T00:59:19;99518.81;;;10.14;100.00
21644;BME280;10983;51.982;9.226;2023-12-29T01:01:46;99522.59;;;10.18;100.00
21644;BME280;10983;51.982;9.226;2023-12-29T01:04:14;99529.28;;;10.21;100.00
21644;BME280;10983;51.982;9.226;2023-12-29T01:06:42;99521.06;;;10.39;100.00
21644;BME280;10983;51.982;9.226;2023-12-29T01:09:10;99509.16;;;10.41;100.00
21644;BME280;10983;51.982;9.226;2023-12-29T01:11:39;99516.72;;;10.49;100.00
21644;BME280;10983;51.982;9.226;2023-12-29T01:14:07;99501.50;;;10.45;100.00
21644;BME280;10983;51.982;9.226;2023-12-29T01:16:34;99510.50;;;10.60;100.00
21644;BME280;10983;51.982;9.226;2023-12-29T01:19:02;99515.88;;;10.65;100.00
21644;BME280;10983;51.982;9.226;2023-12-29T01:21:30;99508.00;;;10.70;100.00
21644;BME280;10983;51.982;9.226;2023-12-29T01:24:00;99511.69;;;10.69;100.00
21644;BME280;10983;51.982;9.226;2023-12-29T01:26:30;99511.47;;;10.54;100.00
21644;BME280;10983;51.982;9.226;2023-12-29T01:28:58;99509.56;;;10.50;100.00
21644;BME280;10983;51.982;9.226;2023-12-29T01:31:28;99492.25;;;10.47;100.00
21644;BME280;10983;51.982;9.226;2023-12-29T01:33:57;99490.06;;;10.61;100.00
21644;BME280;10983;51.982;9.226;2023-12-29T01:36:24;99498.91;;;10.66;100.00
21644;BME280;10983;51.982;9.226;2023-12-29T01:38:52;99496.19;;;10.82;100.00
21644;BME280;10983;51.982;9.226;2023-12-29T01:41:19;99499.72;;;10.88;100.00
21644;BME280;10983;51.982;9.226;2023-12-29T01:44:19;99488.34;;;10.92;100.00
21644;BME280;10983;51.982;9.226;2023-12-29T01:46:49;99487.03;;;10.95;100.00
21644;BME280;10983;51.982;9.226;2023-12-29T01:49:17;99485.19;;;10.95;100.00
21644;BME280;10983;51.982;9.226;2023-12-29T01:51:49;99479.72;;;10.85;100.00
21644;BME280;10983;51.982;9.226;2023-12-29T01:54:18;99469.22;;;10.74;100.00
21644;BME280;10983;51.982;9.226;2023-12-29T01:56:48;99455.50;;;10.61;100.00
21644;BME280;10983;51.982;9.226;2023-12-29T01:59:19;99450.97;;;10.61;100.00
21644;BME280;10983;51.982;9.226;2023-12-29T02:01:54;99440.78;;;10.74;100.00
21644;BME280;10983;51.982;9.226;2023-12-29T02:04:24;99434.78;;;10.84;100.00
21644;BME280;10983;51.982;9.226;2023-12-29T02:06:53;99447.13;;;10.95;100.00
21644;BME280;10983;51.982;9.226;2023-12-29T02:09:21;99434.16;;;10.98;100.00
21644;BME280;10983;51.982;9.226;2023-12-29T02:11:48;99445.47;;;11.10;100.00
21644;BME280;10983;51.982;9.226;2023-12-29T02:14:18;99449.78;;;11.16;100.00
21644;BME280;10983;51.982;9.226;2023-12-29T02:16:52;99432.53;;;11.18;100.00
21644;BME280;10983;51.982;9.226;2023-12-29T02:19:34;99439.22;;;11.21;100.00
21644;BME280;10983;51.982;9.226;2023-12-29T02:22:04;99430.97;;;11.22;100.00
21644;BME280;10983;51.982;9.226;2023-12-29T02:24:33;99432.00;;;11.21;100.00
21644;BME280;10983;51.982;9.226;2023-12-29T02:27:08;99416.69;;;11.28;100.00
21644;BME280;10983;51.982;9.226;2023-12-29T02:29:44;99431.88;;;11.33;100.00
21644;BME280;10983;51.982;9.226;2023-12-29T02:32:18;99419.94;;;11.35;100.00
21644;BME280;10983;51.982;9.226;2023-12-29T02:34:47;99429.63;;;11.46;100.00
21644;BME280;10983;51.982;9.226;2023-12-29T02:37:17;99426.44;;;11.44;100.00
21644;BME280;10983;51.982;9.226;2023-12-29T02:39:46;99430.13;;;11.43;100.00
21644;BME280;10983;51.982;9.226;2023-12-29T02:42:15;99428.53;;;11.42;100.00
21644;BME280;10983;51.982;9.226;2023-12-29T02:44:42;99426.97;;;11.46;100.00
21644;BME280;10983;51.982;9.226;2023-12-29T02:47:10;99427.84;;;11.52;100.00
21644;BME280;10983;51.982;9.226;2023-12-29T02:49:37;99431.25;;;11.47;100.00
21644;BME280;10983;51.982;9.226;2023-12-29T02:52:05;99435.97;;;11.40;100.00
21644;BME280;10983;51.982;9.226;2023-12-29T02:54:33;99428.00;;;11.45;100.00
21644;BME280;10983;51.982;9.226;2023-12-29T02:57:00;99425.84;;;11.42;100.00
21644;BME280;10983;51.982;9.226;2023-12-29T02:59:29;99429.31;;;11.43;100.00
21644;BME280;10983;51.982;9.226;2023-12-29T03:01:56;99443.19;;;11.45;100.00
21644;BME280;10983;51.982;9.226;2023-12-29T03:04:24;99436.75;;;11.41;100.00
21644;BME280;10983;51.982;9.226;2023-12-29T03:06:52;99446.91;;;11.18;100.00
21644;BME280;10983;51.982;9.226;2023-12-29T03:09:20;99463.34;;;10.93;100.00
21644;BME280;10983;51.982;9.226;2023-12-29T03:11:49;99451.53;;;10.63;100.00
21644;BME280;10983;51.982;9.226;2023-12-29T03:14:16;99442.47;;;10.43;100.00
21644;BME280;10983;51.982;9.226;2023-12-29T03:16:45;99442.03;;;10.13;100.00
21644;BME280;10983;51.982;9.226;2023-12-29T03:19:12;99435.44;;;9.99;100.00
21644;BME280;10983;51.982;9.226;2023-12-29T03:21:40;99446.91;;;9.88;100.00
21644;BME280;10983;51.982;9.226;2023-12-29T03:24:08;99427.13;;;9.79;100.00
21644;BME280;10983;51.982;9.226;2023-12-29T03:26:35;99425.19;;;9.75;100.00
21644;BME280;10983;51.982;9.226;2023-12-29T03:29:03;99423.16;;;9.65;100.00
21644;BME280;10983;51.982;9.226;2023-12-29T03:31:30;99425.16;;;9.58;100.00
21644;BME280;10983;51.982;9.226;2023-12-29T03:33:59;99441.09;;;9.58;100.00
21644;BME280;10983;51.982;9.226;2023-12-29T03:36:27;99427.03;;;9.58;100.00
21644;BME280;10983;51.982;9.226;2023-12-29T03:38:54;99431.69;;;9.51;100.00
21644;BME280;10983;51.982;9.226;2023-12-29T03:41:22;99402.16;;;9.48;100.00
21644;BME280;10983;51.982;9.226;2023-12-29T03:43:49;99388.31;;;9.46;100.00
21644;BME280;10983;51.982;9.226;2023-12-29T03:46:17;99415.72;;;9.35;100.00
21644;BME280;10983;51.982;9.226;2023-12-29T03:48:45;99401.38;;;9.47;100.00
21644;BME280;10983;51.982;9.226;2023-12-29T03:51:15;99392.84;;;9.45;100.00
21644;BME280;10983;51.982;9.226;2023-12-29T03:53:43;99385.91;;;9.44;100.00
21644;BME280;10983;51.982;9.226;2023-12-29T03:56:13;99384.22;;;9.38;100.00
21644;BME280;10983;51.982;9.226;2023-12-29T03:58:41;99349.41;;;9.35;100.00
21644;BME280;10983;51.982;9.226;2023-12-29T04:01:10;99360.66;;;9.42;100.00
21644;BME280;10983;51.982;9.226;2023-12-29T04:03:38;99364.63;;;9.39;100.00
21644;BME280;10983;51.982;9.226;2023-12-29T04:06:07;99346.25;;;9.38;100.00
21644;BME280;10983;51.982;9.226;2023-12-29T04:08:36;99351.75;;;9.31;100.00
21644;BME280;10983;51.982;9.226;2023-12-29T04:11:05;99348.91;;;9.38;100.00
21644;BME280;10983;51.982;9.226;2023-12-29T04:13:32;99344.59;;;9.48;100.00
21644;BME280;10983;51.982;9.226;2023-12-29T04:16:00;99316.47;;;9.47;100.00
21644;BME280;10983;51.982;9.226;2023-12-29T04:18:28;99327.69;;;9.38;100.00
21644;BME280;10983;51.982;9.226;2023-12-29T04:20:56;99307.34;;;9.27;100.00
21644;BME280;10983;51.982;9.226;2023-12-29T04:23:24;99306.66;;;9.31;100.00
21644;BME280;10983;51.982;9.226;2023-12-29T04:25:53;99307.19;;;9.33;100.00
21644;BME280;10983;51.982;9.226;2023-12-29T04:28:20;99297.97;;;9.36;100.00
21644;BME280;10983;51.982;9.226;2023-12-29T04:30:49;99310.59;;;9.29;100.00
21644;BME280;10983;51.982;9.226;2023-12-29T04:33:17;99304.94;;;9.25;100.00
21644;BME280;10983;51.982;9.226;2023-12-29T04:35:44;99292.25;;;9.27;100.00
21644;BME280;10983;51.982;9.226;2023-12-29T04:38:11;99293.28;;;9.26;100.00
21644;BME280;10983;51.982;9.226;2023-12-29T04:40:40;99284.84;;;9.13;100.00
21644;BME280;10983;51.982;9.226;2023-12-29T04:43:09;99282.09;;;9.24;100.00
21644;BME280;10983;51.982;9.226;2023-12-29T04:45:37;99288.25;;;9.25;100.00
21644;BME280;10983;51.982;9.226;2023-12-29T04:48:04;99290.00;;;9.19;100.00
21644;BME280;10983;51.982;9.226;2023-12-29T04:50:32;99291.03;;;9.18;100.00
21644;BME280;10983;51.982;9.226;2023-12-29T04:53:00;99272.47;;;9.18;100.00
21644;BME280;10983;51.982;9.226;2023-12-29T04:55:28;99270.56;;;9.14;100.00
21644;BME280;10983;51.982;9.226;2023-12-29T04:57:55;99267.81;;;9.09;100.00
21644;BME280;10983;51.982;9.226;2023-12-29T05:00:24;99269.50;;;9.15;100.00
21644;BME280;10983;51.982;9.226;2023-12-29T05:02:52;99249.00;;;9.10;100.00
21644;BME280;10983;51.982;9.226;2023-12-29T05:05:19;99269.59;;;9.03;100.00
21644;BME280;10983;51.982;9.226;2023-12-29T05:07:47;99242.66;;;9.11;100.00
21644;BME280;10983;51.982;9.226;2023-12-29T05:10:15;99236.78;;;9.09;100.00
21644;BME280;10983;51.982;9.226;2023-12-29T05:12:43;99230.19;;;9.12;100.00
21644;BME280;10983;51.982;9.226;2023-12-29T05:15:10;99216.00;;;9.18;100.00
21644;BME280;10983;51.982;9.226;2023-12-29T05:17:39;99207.22;;;9.17;100.00
21644;BME280;10983;51.982;9.226;2023-12-29T05:20:08;99198.72;;;9.15;100.00
21644;BME280;10983;51.982;9.226;2023-12-29T05:22:35;99194.28;;;9.21;100.00
21644;BME280;10983;51.982;9.226;2023-12-29T05:25:03;99208.41;;;9.26;100.00
21644;BME280;10983;51.982;9.226;2023-12-29T05:27:31;99214.28;;;9.28;100.00
21644;BME280;10983;51.982;9.226;2023-12-29T05:30:01;99214.44;;;9.38;100.00
21644;BME280;10983;51.982;9.226;2023-12-29T05:32:29;99211.53;;;9.40;100.00
21644;BME280;10983;51.982;9.226;2023-12-29T05:34:58;99216.59;;;9.41;100.00
21644;BME280;10983;51.982;9.226;2023-12-29T05:37:25;99236.03;;;9.47;100.00
21644;BME280;10983;51.982;9.226;2023-12-29T05:39:53;99232.84;;;9.45;100.00
21644;BME280;10983;51.982;9.226;2023-12-29T05:42:20;99240.63;;;9.51;100.00
21644;BME280;10983;51.982;9.226;2023-12-29T05:44:49;99232.19;;;9.54;100.00
21644;BME280;10983;51.982;9.226;2023-12-29T05:47:17;99247.03;;;9.55;100.00
21644;BME280;10983;51.982;9.226;2023-12-29T05:49:45;99245.75;;;9.57;100.00
21644;BME280;10983;51.982;9.226;2023-12-29T05:52:14;99256.28;;;9.69;100.00
21644;BME280;10983;51.982;9.226;2023-12-29T05:54:43;99250.72;;;9.70;100.00
21644;BME280;10983;51.982;9.226;2023-12-29T05:57:13;99259.00;;;9.74;100.00
21644;BME280;10983;51.982;9.226;2023-12-29T05:59:40;99270.97;;;9.76;100.00
21644;BME280;10983;51.982;9.226;2023-12-29T06:02:07;99280.28;;;9.79;100.00
21644;BME280;10983;51.982;9.226;2023-12-29T06:04:35;99278.97;;;9.98;100.00
21644;BME280;10983;51.982;9.226;2023-12-29T06:07:03;99299.09;;;9.94;100.00
21644;BME280;10983;51.982;9.226;2023-12-29T06:09:31;99315.19;;;10.04;100.00
21644;BME280;10983;51.982;9.226;2023-12-29T06:11:59;99306.66;;;10.02;100.00
21644;BME280;10983;51.982;9.226;2023-12-29T06:14:26;99319.50;;;10.09;100.00
21644;BME280;10983;51.982;9.226;2023-12-29T06:16:54;99328.69;;;10.18;100.00
21644;BME280;10983;51.982;9.226;2023-12-29T06:19:21;99344.63;;;10.18;100.00
21644;BME280;10983;51.982;9.226;2023-12-29T06:21:49;99349.75;;;10.25;100.00
21644;BME280;10983;51.982;9.226;2023-12-29T06:24:16;99338.81;;;10.21;100.00
21644;BME280;10983;51.982;9.226;2023-12-29T06:26:47;99347.28;;;10.18;100.00
21644;BME280;10983;51.982;9.226;2023-12-29T06:29:16;99337.94;;;10.16;100.00
21644;BME280;10983;51.982;9.226;2023-12-29T06:31:43;99350.53;;;10.25;100.00
21644;BME280;10983;51.982;9.226;2023-12-29T06:34:11;99352.91;;;10.22;100.00
21644;BME280;10983;51.982;9.226;2023-12-29T06:36:39;99347.88;;;10.25;100.00
21644;BME280;10983;51.982;9.226;2023-12-29T06:39:06;99349.19;;;10.23;100.00
21644;BME280;10983;51.982;9.226;2023-12-29T06:41:34;99365.56;;;10.36;100.00
21644;BME280;10983;51.982;9.226;2023-12-29T06:44:02;99368.44;;;10.30;100.00
21644;BME280;10983;51.982;9.226;2023-12-29T06:46:30;99370.09;;;10.36;100.00
21644;BME280;10983;51.982;9.226;2023-12-29T06:48:57;99382.69;;;10.45;100.00
21644;BME280;10983;51.982;9.226;2023-12-29T06:51:27;99386.66;;;10.43;100.00
21644;BME280;10983;51.982;9.226;2023-12-29T06:53:55;99392.84;;;10.48;100.00
21644;BME280;10983;51.982;9.226;2023-12-29T06:56:22;99389.13;;;10.49;100.00
21644;BME280;10983;51.982;9.226;2023-12-29T06:58:49;99375.06;;;10.49;100.00
21644;BME280;10983;51.982;9.226;2023-12-29T07:01:18;99382.53;;;10.52;100.00
21644;BME280;10983;51.982;9.226;2023-12-29T07:03:46;99385.19;;;10.52;100.00
21644;BME280;10983;51.982;9.226;2023-12-29T07:06:13;99398.72;;;10.50;100.00
21644;BME280;10983;51.982;9.226;2023-12-29T07:08:41;99398.91;;;10.44;100.00
21644;BME280;10983;51.982;9.226;2023-12-29T07:11:09;99403.34;;;10.38;100.00
21644;BME280;10983;51.982;9.226;2023-12-29T07:13:37;99416.28;;;10.51;100.00
21644;BME280;10983;51.982;9.226;2023-12-29T07:16:05;99418.19;;;10.56;100.00
21644;BME280;10983;51.982;9.226;2023-12-29T07:18:35;99420.44;;;10.63;100.00
21644;BME280;10983;51.982;9.226;2023-12-29T07:21:04;99419.56;;;10.58;100.00
21644;BME280;10983;51.982;9.226;2023-12-29T07:23:31;99442.50;;;10.64;100.00
21644;BME280;10983;51.982;9.226;2023-12-29T07:25:59;99416.03;;;10.74;100.00
21644;BME280;10983;51.982;9.226;2023-12-29T07:28:27;99403.25;;;10.71;100.00
21644;BME280;10983;51.982;9.226;2023-12-29T07:30:55;99426.72;;;10.79;100.00
21644;BME280;10983;51.982;9.226;2023-12-29T07:33:23;99442.38;;;10.75;100.00
21644;BME280;10983;51.982;9.226;2023-12-29T07:35:52;99429.97;;;10.81;100.00
21644;BME280;10983;51.982;9.226;2023-12-29T07:38:20;99415.53;;;10.77;100.00
21644;BME280;10983;51.982;9.226;2023-12-29T07:40:47;99435.47;;;10.74;100.00
21644;BME280;10983;51.982;9.226;2023-12-29T07:43:15;99421.63;;;10.72;100.00
21644;BME280;10983;51.982;9.226;2023-12-29T07:45:42;99424.28;;;10.72;100.00
21644;BME280;10983;51.982;9.226;2023-12-29T07:48:11;99421.22;;;10.85;100.00
21644;BME280;10983;51.982;9.226;2023-12-29T07:50:39;99433.22;;;10.88;100.00
21644;BME280;10983;51.982;9.226;2023-12-29T07:53:08;99416.72;;;10.86;100.00
21644;BME280;10983;51.982;9.226;2023-12-29T07:55:37;99435.03;;;10.82;100.00
21644;BME280;10983;51.982;9.226;2023-12-29T07:58:05;99432.38;;;10.82;100.00
21644;BME280;10983;51.982;9.226;2023-12-29T08:00:36;99428.66;;;10.83;100.00
21644;BME280;10983;51.982;9.226;2023-12-29T08:03:04;99408.44;;;10.82;100.00
21644;BME280;10983;51.982;9.226;2023-12-29T08:05:34;99428.94;;;10.87;100.00
21644;BME280;10983;51.982;9.226;2023-12-29T08:08:01;99421.22;;;10.85;100.00
21644;BME280;10983;51.982;9.226;2023-12-29T08:10:30;99423.41;;;10.88;100.00
21644;BME280;10983;51.982;9.226;2023-12-29T08:12:58;99423.94;;;10.90;100.00
21644;BME280;10983;51.982;9.226;2023-12-29T08:15:26;99443.44;;;10.96;100.00
21644;BME280;10983;51.982;9.226;2023-12-29T08:17:55;99436.03;;;10.98;100.00
21644;BME280;10983;51.982;9.226;2023-12-29T08:20:23;99425.94;;;11.00;100.00
21644;BME280;10983;51.982;9.226;2023-12-29T08:22:51;99424.88;;;11.01;100.00
21644;BME280;10983;51.982;9.226;2023-12-29T08:25:20;99431.81;;;11.02;100.00
21644;BME280;10983;51.982;9.226;2023-12-29T08:27:51;99436.63;;;11.05;100.00
21644;BME280;10983;51.982;9.226;2023-12-29T08:30:19;99436.38;;;11.06;100.00
21644;BME280;10983;51.982;9.226;2023-12-29T08:32:46;99435.28;;;11.02;100.00
21644;BME280;10983;51.982;9.226;2023-12-29T08:35:14;99450.97;;;11.04;100.00
21644;BME280;10983;51.982;9.226;2023-12-29T08:37:42;99436.03;;;10.98;100.00
21644;BME280;10983;51.982;9.226;2023-12-29T08:40:10;99430.75;;;11.03;100.00
21644;BME280;10983;51.982;9.226;2023-12-29T08:42:38;99428.34;;;11.01;100.00
21644;BME280;10983;51.982;9.226;2023-12-29T08:45:08;99429.16;;;11.02;100.00
21644;BME280;10983;51.982;9.226;2023-12-29T08:47:36;99417.16;;;10.99;100.00
21644;BME280;10983;51.982;9.226;2023-12-29T08:50:04;99414.50;;;10.99;100.00
21644;BME280;10983;51.982;9.226;2023-12-29T08:52:33;99412.34;;;10.96;100.00
21644;BME280;10983;51.982;9.226;2023-12-29T08:55:00;99424.94;;;11.06;100.00
21644;BME280;10983;51.982;9.226;2023-12-29T08:57:28;99413.91;;;10.97;100.00
21644;BME280;10983;51.982;9.226;2023-12-29T08:59:55;99421.78;;;10.87;100.00
21644;BME280;10983;51.982;9.226;2023-12-29T09:02:24;99423.16;;;10.68;100.00
21644;BME280;10983;51.982;9.226;2023-12-29T09:04:51;99435.19;;;10.55;100.00
21644;BME280;10983;51.982;9.226;2023-12-29T09:07:19;99426.69;;;10.36;100.00
21644;BME280;10983;51.982;9.226;2023-12-29T09:09:46;99421.53;;;10.08;100.00
21644;BME280;10983;51.982;9.226;2023-12-29T09:12:14;99435.50;;;9.88;100.00
21644;BME280;10983;51.982;9.226;2023-12-29T09:14:41;99423.34;;;9.75;100.00
21644;BME280;10983;51.982;9.226;2023-12-29T09:17:10;99411.75;;;9.65;100.00
21644;BME280;10983;51.982;9.226;2023-12-29T09:19:40;99418.69;;;9.66;100.00
21644;BME280;10983;51.982;9.226;2023-12-29T09:22:09;99412.69;;;9.59;100.00
21644;BME280;10983;51.982;9.226;2023-12-29T09:24:37;99394.13;;;9.59;100.00
21644;BME280;10983;51.982;9.226;2023-12-29T09:27:04;99370.97;;;9.54;100.00
21644;BME280;10983;51.982;9.226;2023-12-29T09:29:32;99389.00;;;9.52;100.00
21644;BME280;10983;51.982;9.226;2023-12-29T09:31:59;99375.22;;;9.55;100.00
21644;BME280;10983;51.982;9.226;2023-12-29T09:34:27;99363.16;;;9.48;100.00
21644;BME280;10983;51.982;9.226;2023-12-29T09:36:56;99372.25;;;9.52;100.00
21644;BME280;10983;51.982;9.226;2023-12-29T09:39:24;99373.53;;;9.49;100.00
21644;BME280;10983;51.982;9.226;2023-12-29T09:41:52;99355.84;;;9.55;100.00
21644;BME280;10983;51.982;9.226;2023-12-29T09:44:22;99343.63;;;9.54;100.00
21644;BME280;10983;51.982;9.226;2023-12-29T09:46:52;99348.78;;;9.60;100.00
21644;BME280;10983;51.982;9.226;2023-12-29T09:49:21;99337.09;;;9.61;100.00
21644;BME280;10983;51.982;9.226;2023-12-29T09:51:48;99334.53;;;9.66;100.00
21644;BME280;10983;51.982;9.226;2023-12-29T09:54:18;99331.09;;;9.66;100.00
21644;BME280;10983;51.982;9.226;2023-12-29T09:56:46;99335.09;;;9.68;100.00
21644;BME280;10983;51.982;9.226;2023-12-29T09:59:14;99335.91;;;9.69;100.00
21644;BME280;10983;51.982;9.226;2023-12-29T10:01:42;99329.34;;;9.76;100.00
21644;BME280;10983;51.982;9.226;2023-12-29T10:04:12;99332.00;;;9.76;100.00
21644;BME280;10983;51.982;9.226;2023-12-29T10:06:44;99322.06;;;9.83;100.00
21644;BME280;10983;51.982;9.226;2023-12-29T10:09:18;99326.38;;;9.89;100.00
21644;BME280;10983;51.982;9.226;2023-12-29T10:11:47;99326.25;;;9.96;100.00
21644;BME280;10983;51.982;9.226;2023-12-29T10:14:22;99331.06;;;9.99;100.00
21644;BME280;10983;51.982;9.226;2023-12-29T10:16:53;99335.66;;;10.03;100.00
21644;BME280;10983;51.982;9.226;2023-12-29T10:19:30;99344.78;;;10.12;100.00
21644;BME280;10983;51.982;9.226;2023-12-29T10:22:09;99347.75;;;10.15;100.00
21644;BME280;10983;51.982;9.226;2023-12-29T10:24:40;99343.31;;;10.21;100.00
21644;BME280;10983;51.982;9.226;2023-12-29T10:27:08;99342.03;;;10.23;100.00
21644;BME280;10983;51.982;9.226;2023-12-29T10:29:37;99351.63;;;10.24;100.00
21644;BME280;10983;51.982;9.226;2023-12-29T10:32:05;99355.38;;;10.28;100.00
21644;BME280;10983;51.982;9.226;2023-12-29T10:34:33;99365.56;;;10.36;100.00
21644;BME280;10983;51.982;9.226;2023-12-29T10:37:01;99369.13;;;10.42;100.00
21644;BME280;10983;51.982;9.226;2023-12-29T10:39:33;99368.38;;;10.46;100.00
21644;BME280;10983;51.982;9.226;2023-12-29T10:42:06;99361.38;;;10.62;100.00
21644;BME280;10983;51.982;9.226;2023-12-29T10:44:35;99372.94;;;10.72;100.00
21644;BME280;10983;51.982;9.226;2023-12-29T10:47:10;99383.13;;;10.80;100.00
21644;BME280;10983;51.982;9.226;2023-12-29T10:49:39;99411.22;;;10.92;100.00
21644;BME280;10983;51.982;9.226;2023-12-29T10:52:11;99392.97;;;11.01;100.00
21644;BME280;10983;51.982;9.226;2023-12-29T10:54:40;99415.03;;;11.01;100.00
21644;BME280;10983;51.982;9.226;2023-12-29T10:57:11;99410.56;;;11.07;100.00
21644;BME280;10983;51.982;9.226;2023-12-29T10:59:39;99395.44;;;11.07;100.00
21644;BME280;10983;51.982;9.226;2023-12-29T11:02:07;99409.06;;;11.16;100.00
21644;BME280;10983;51.982;9.226;2023-12-29T11:04:42;99404.06;;;11.19;100.00
21644;BME280;10983;51.982;9.226;2023-12-29T11:07:11;99405.06;;;11.13;100.00
21644;BME280;10983;51.982;9.226;2023-12-29T11:09:40;99397.66;;;11.15;100.00
21644;BME280;10983;51.982;9.226;2023-12-29T11:12:10;99395.06;;;11.25;100.00
21644;BME280;10983;51.982;9.226;2023-12-29T11:14:41;99393.16;;;11.20;100.00
21644;BME280;10983;51.982;9.226;2023-12-29T11:17:12;99385.34;;;11.35;100.00
21644;BME280;10983;51.982;9.226;2023-12-29T11:19:42;99381.41;;;11.43;100.00
21644;BME280;10983;51.982;9.226;2023-12-29T11:22:14;99384.88;;;11.43;100.00
21644;BME280;10983;51.982;9.226;2023-12-29T11:24:42;99393.97;;;11.47;100.00
21644;BME280;10983;51.982;9.226;2023-12-29T11:27:11;99384.44;;;11.51;100.00
21644;BME280;10983;51.982;9.226;2023-12-29T11:29:40;99385.75;;;11.49;100.00
21644;BME280;10983;51.982;9.226;2023-12-29T11:32:13;99405.81;;;11.56;100.00
21644;BME280;10983;51.982;9.226;2023-12-29T11:34:53;99378.34;;;11.56;100.00
21644;BME280;10983;51.982;9.226;2023-12-29T11:37:45;99402.75;;;11.48;100.00
21644;BME280;10983;51.982;9.226;2023-12-29T11:40:19;99389.53;;;11.53;100.00
21644;BME280;10983;51.982;9.226;2023-12-29T11:42:52;99360.41;;;11.46;100.00
21644;BME280;10983;51.982;9.226;2023-12-29T11:45:27;99390.31;;;11.53;100.00
21644;BME280;10983;51.982;9.226;2023-12-29T11:47:55;99389.22;;;11.49;100.00
21644;BME280;10983;51.982;9.226;2023-12-29T11:50:27;99380.84;;;11.41;100.00
21644;BME280;10983;51.982;9.226;2023-12-29T11:52:55;99375.09;;;11.49;100.00
21644;BME280;10983;51.982;9.226;2023-12-29T11:55:29;99385.56;;;11.55;100.00
21644;BME280;10983;51.982;9.226;2023-12-29T11:57:59;99367.91;;;11.49;100.00
21644;BME280;10983;51.982;9.226;2023-12-29T12:00:43;99389.34;;;11.38;100.00
21644;BME280;10983;51.982;9.226;2023-12-29T12:03:17;99374.44;;;11.37;100.00
21644;BME280;10983;51.982;9.226;2023-12-29T12:05:47;99379.41;;;11.28;100.00
21644;BME280;10983;51.982;9.226;2023-12-29T12:08:29;99380.53;;;11.37;100.00
21644;BME280;10983;51.982;9.226;2023-12-29T12:14:04;99374.34;;;11.53;100.00
21644;BME280;10983;51.982;9.226;2023-12-29T12:16:47;99377.50;;;11.50;100.00
21644;BME280;10983;51.982;9.226;2023-12-29T12:19:16;99388.91;;;11.19;100.00
21644;BME280;10983;51.982;9.226;2023-12-29T12:21:46;99371.53;;;10.64;100.00
21644;BME280;10983;51.982;9.226;2023-12-29T12:24:18;99372.41;;;10.49;100.00
21644;BME280;10983;51.982;9.226;2023-12-29T12:26:46;99372.50;;;10.37;100.00
21644;BME280;10983;51.982;9.226;2023-12-29T12:29:17;99372.81;;;10.41;100.00
21644;BME280;10983;51.982;9.226;2023-12-29T12:31:53;99374.81;;;10.50;100.00
21644;BME280;10983;51.982;9.226;2023-12-29T12:34:21;99379.94;;;10.57;100.00
21644;BME280;10983;51.982;9.226;2023-12-29T12:36:51;99377.38;;;10.66;100.00
21644;BME280;10983;51.982;9.226;2023-12-29T12:39:20;99371.38;;;10.76;100.00
21644;BME280;10983;51.982;9.226;2023-12-29T12:41:50;99354.88;;;10.74;100.00
21644;BME280;10983;51.982;9.226;2023-12-29T12:44:19;99348.22;;;10.71;100.00
21644;BME280;10983;51.982;9.226;2023-12-29T12:46:50;99365.94;;;10.87;100.00
21644;BME280;10983;51.982;9.226;2023-12-29T12:49:19;99357.34;;;11.07;100.00
21644;BME280;10983;51.982;9.226;2023-12-29T12:51:48;99354.56;;;11.18;100.00
21644;BME280;10983;51.982;9.226;2023-12-29T12:54:18;99353.13;;;11.37;100.00
21644;BME280;10983;51.982;9.226;2023-12-29T12:56:46;99351.16;;;11.49;100.00
21644;BME280;10983;51.982;9.226;2023-12-29T12:59:14;99350.69;;;11.57;100.00
21644;BME280;10983;51.982;9.226;2023-12-29T13:01:44;99357.38;;;11.64;100.00
21644;BME280;10983;51.982;9.226;2023-12-29T13:04:13;99366.66;;;11.57;100.00
21644;BME280;10983;51.982;9.226;2023-12-29T13:06:41;99375.41;;;11.52;100.00